M I D A S
Marine Information and Data Acquisition System
Tripno 711 of the Zeeleeuw from 2004-05-07 07:14:48 to 2004-05-07 09:23:56
Back to CruiseResearch ActivitiesStationsMapUnderway DataData graphs

EquipmentUnitsComments
TimeDGPSUTC
LatitudeDGPSDM.mWGS84
LongitudeDGPSDM.mWGS84
SpeedMeteo Stationm/sRelative wind speed
DirectionMeteo StationdegRelative wind direction
TemperatureMeteo Stationdeg CelciusAir temperature
PressureMeteo StationPaAtmospheric pressure
HumidityMeteo Station%Relative humidity
Missing or incorrect values are displayed as -999
Metereological data collected by the RV Zeeleeuw from 2004-05-07 07:14:48 to 2004-05-07 09:23:56
Time Latitude Longitude Speed Direction Temperature Pressure Humidity
2004-05-07 07:15 51°13.595 2°56.095 5.1 216 11.6 100000 80
2004-05-07 07:16 51°13.618 2°56.021 3.9 201 11.5 100000 79
2004-05-07 07:17 51°13.651 2°55.904 2.6 176 11.7 100000 79
2004-05-07 07:18 51°13.667 2°55.789 4.1 240 11.8 100000 78
2004-05-07 07:19 51°13.672 2°55.785 3.1 271 11.7 99990 78
2004-05-07 07:20 51°13.696 2°55.762 6.2 359 11.7 100000 78
2004-05-07 07:21 51°13.793 2°55.673 6.5 358 11.6 99990 78
2004-05-07 07:22 51°13.921 2°55.581 7.1 344 11.5 99990 78
2004-05-07 07:23 51°14.054 2°55.481 8.2 356 11.5 99990 78
2004-05-07 07:24 51°14.196 2°55.353 7.2 357 11.4 99990 78
2004-05-07 07:25 51°14.319 2°55.153 10 355 11.4 99990 78
2004-05-07 07:26 51°14.418 2°54.866 12.2 6 11.3 99990 78
2004-05-07 07:27 51°14.405 2°54.493 11.7 17 11.2 99990 79
2004-05-07 07:28 51°14.329 2°54.139 10.9 22 11.3 99990 80
2004-05-07 07:29 51°14.217 2°53.816 10.2 21 11.2 99990 80
2004-05-07 07:30 51°14.084 2°53.507 10.6 24 11.2 99990 80
2004-05-07 07:31 51°13.94 2°53.195 10.7 28 11.2 99990 81
2004-05-07 07:32 51°13.794 2°52.891 10.9 30 11.1 99990 80
2004-05-07 07:33 51°13.666 2°52.561 11.4 24 11 99990 80
2004-05-07 07:34 51°13.534 2°52.243 11.4 14 11.1 99990 81
2004-05-07 07:35 51°13.415 2°51.898 10.1 23 11.1 99990 80
2004-05-07 07:36 51°13.302 2°51.563 10.2 24 11.1 99990 80
2004-05-07 07:37 51°13.184 2°51.221 11.4 19 11.1 99990 80
2004-05-07 07:38 51°13.054 2°50.89 11 29 11.1 99990 81
2004-05-07 07:39 51°12.92 2°50.564 11.3 23 11.2 99990 81
2004-05-07 07:40 51°12.785 2°50.233 11.5 26 11.1 99990 81
2004-05-07 07:41 51°12.651 2°49.912 11 24 11.1 100000 81
2004-05-07 07:42 51°12.515 2°49.604 11.6 20 11.1 99990 82
2004-05-07 07:43 51°12.403 2°49.266 11.3 24 11.1 99990 82
2004-05-07 07:44 51°12.284 2°48.935 11.8 19 11.1 100000 82
2004-05-07 07:45 51°12.159 2°48.602 12.2 21 11 100000 82
2004-05-07 07:46 51°12.05 2°48.271 11.1 25 11 99990 82
2004-05-07 07:47 51°11.929 2°47.937 11.8 22 11.1 100000 82
2004-05-07 07:48 51°11.812 2°47.64 9.7 30 11 100000 82
2004-05-07 07:49 51°11.771 2°47.481 5.5 48 11.1 100010 82
2004-05-07 07:50 51°11.768 2°47.47 5.2 88 11.1 100010 82
2004-05-07 07:51 51°11.769 2°47.461 5.4 97 11 100010 82
2004-05-07 07:52 51°11.768 2°47.452 4.3 100 11.1 100010 83
2004-05-07 07:53 51°11.764 2°47.441 5.3 96 11.1 100010 84
2004-05-07 07:54 51°11.76 2°47.427 5.2 107 11 100020 83
2004-05-07 07:55 51°11.753 2°47.412 5.4 108 11 100020 83
2004-05-07 07:56 51°11.745 2°47.398 5.4 119 10.9 100020 83
2004-05-07 07:57 51°11.735 2°47.382 5.7 123 10.9 100020 83
2004-05-07 07:58 51°11.722 2°47.367 5.2 134 10.9 100020 82
2004-05-07 07:59 51°11.709 2°47.354 5.1 125 10.8 100020 82
2004-05-07 08:00 51°11.687 2°47.339 6.4 91 10.9 100020 82
2004-05-07 08:01 51°11.642 2°47.225 7.8 8 10.9 100010 82
2004-05-07 08:02 51°11.681 2°47.117 7.4 316 10.9 100010 81
2004-05-07 08:03 51°11.742 2°47.156 5.7 262 11 100020 82
2004-05-07 08:04 51°11.784 2°47.228 3.9 258 11 100020 82
2004-05-07 08:05 51°11.812 2°47.308 3.9 249 11 100020 82
2004-05-07 08:06 51°11.826 2°47.392 3.7 238 11.1 100020 82
2004-05-07 08:07 51°11.839 2°47.476 3.6 249 11.1 100020 82
2004-05-07 08:08 51°11.858 2°47.571 4.2 243 11 100020 82
2004-05-07 08:09 51°11.875 2°47.667 3.5 235 11 100020 82
2004-05-07 08:10 51°11.892 2°47.761 4.5 240 11 100020 82
2004-05-07 08:11 51°11.906 2°47.847 4.4 241 11 100020 82
2004-05-07 08:12 51°11.922 2°47.933 4.3 244 11 100020 82
2004-05-07 08:13 51°11.943 2°48.01 3.8 249 11 100020 82
2004-05-07 08:14 51°11.962 2°48.089 3.9 247 11 100020 82
2004-05-07 08:15 51°11.981 2°48.167 4.8 237 10.9 100020 82
2004-05-07 08:16 51°11.999 2°48.243 3.1 255 11 100020 82
2004-05-07 08:17 51°12.026 2°48.317 5.2 261 11.1 100020 82
2004-05-07 08:18 51°12.057 2°48.385 4.7 250 11 100020 82
2004-05-07 08:19 51°12.088 2°48.451 3.7 255 11.1 100020 83
2004-05-07 08:20 51°12.117 2°48.521 4.9 261 11.1 100020 83
2004-05-07 08:21 51°12.147 2°48.593 4 256 11.1 100020 83
2004-05-07 08:22 51°12.175 2°48.661 4.3 250 11 100020 83
2004-05-07 08:23 51°12.204 2°48.73 4.1 254 11 100020 83
2004-05-07 08:24 51°12.234 2°48.801 4.5 259 11 100020 83
2004-05-07 08:25 51°12.262 2°48.87 4.3 256 11.1 100020 83
2004-05-07 08:26 51°12.289 2°48.938 3.7 246 11 100020 83
2004-05-07 08:27 51°12.317 2°49.007 4.2 253 11.1 100020 83
2004-05-07 08:28 51°12.348 2°49.076 4.9 257 11.1 100020 83
2004-05-07 08:29 51°12.377 2°49.144 3.6 254 11.1 100020 83
2004-05-07 08:30 51°12.403 2°49.209 3.6 258 11 100020 83
2004-05-07 08:31 51°12.429 2°49.278 3 252 11 100020 83
2004-05-07 08:32 51°12.446 2°49.347 4.3 246 11 100030 83
2004-05-07 08:33 51°12.465 2°49.412 3.8 256 11 100020 83
2004-05-07 08:34 51°12.487 2°49.452 7.1 263 11 100020 83
2004-05-07 08:35 51°12.506 2°49.463 6.5 271 11.1 100020 84
2004-05-07 08:36 51°12.52 2°49.46 5.7 276 11.2 100020 84
2004-05-07 08:37 51°12.53 2°49.449 6.5 274 11.2 100020 84
2004-05-07 08:38 51°12.54 2°49.434 6.3 288 11.3 100020 84
2004-05-07 08:39 51°12.572 2°49.446 5.6 274 11.3 100020 84
2004-05-07 08:40 51°12.622 2°49.478 5.9 283 11.3 100020 84
2004-05-07 08:41 51°12.675 2°49.547 4.4 265 11.3 100020 84
2004-05-07 08:42 51°12.716 2°49.644 4.1 269 11.4 100020 84
2004-05-07 08:43 51°12.762 2°49.741 5.1 267 11.4 100020 84
2004-05-07 08:44 51°12.807 2°49.841 4.8 262 11.3 100020 84
2004-05-07 08:45 51°12.853 2°49.944 4 270 11.3 100020 84
2004-05-07 08:46 51°12.897 2°50.045 4.8 273 11.3 100020 84
2004-05-07 08:47 51°12.942 2°50.144 5.5 264 11.2 100020 83
2004-05-07 08:48 51°12.987 2°50.247 3.4 269 11.2 100020 83
2004-05-07 08:49 51°13.032 2°50.352 4 263 11.2 100030 83
2004-05-07 08:50 51°13.076 2°50.455 5.2 267 11.1 100020 84
2004-05-07 08:51 51°13.121 2°50.561 4.4 263 11.2 100020 84
2004-05-07 08:52 51°13.166 2°50.668 4.3 261 11.2 100020 84
2004-05-07 08:53 51°13.212 2°50.778 5.4 274 11.2 100020 84
2004-05-07 08:54 51°13.258 2°50.891 4.9 277 11.3 100020 84
2004-05-07 08:55 51°13.305 2°51.003 5.3 271 11.3 100020 84
2004-05-07 08:56 51°13.351 2°51.119 3.7 261 11.3 100030 84
2004-05-07 08:57 51°13.391 2°51.245 3.7 262 11.3 100030 84
2004-05-07 08:58 51°13.431 2°51.368 1.9 268 11.3 100030 84
2004-05-07 08:59 51°13.47 2°51.491 4.6 274 11.3 100030 84
2004-05-07 09:00 51°13.51 2°51.617 4.4 265 11.4 100030 84
2004-05-07 09:01 51°13.549 2°51.742 4.9 272 11.4 100030 84
2004-05-07 09:02 51°13.589 2°51.867 4.5 270 11.4 100030 84
2004-05-07 09:03 51°13.628 2°51.993 2.5 265 11.3 100030 83
2004-05-07 09:04 51°13.666 2°52.113 5 266 11.3 100030 83
2004-05-07 09:05 51°13.705 2°52.236 4.1 265 11.4 100030 83
2004-05-07 09:06 51°13.743 2°52.357 4.2 266 11.3 100020 83
2004-05-07 09:07 51°13.781 2°52.477 3.9 267 11.3 100020 82
2004-05-07 09:08 51°13.821 2°52.596 2.8 261 11.3 100030 82
2004-05-07 09:09 51°13.859 2°52.719 3.5 261 11.3 100030 82
2004-05-07 09:10 51°13.896 2°52.836 2.9 263 11.2 100020 82
2004-05-07 09:11 51°13.935 2°52.957 3.7 267 11.3 100020 82
2004-05-07 09:12 51°13.975 2°53.082 3.5 278 11.2 100020 82
2004-05-07 09:13 51°14.038 2°53.267 5 313 11.3 100020 82
2004-05-07 09:14 51°14.133 2°53.54 5.1 228 11.3 100020 82
2004-05-07 09:15 51°14.231 2°53.822 5.6 43 11.2 100020 81
2004-05-07 09:16 51°14.309 2°54.123 4.9 43 11.3 100020 81
2004-05-07 09:17 51°14.402 2°54.404 4.1 229 11.3 100010 81
2004-05-07 09:18 51°14.425 2°54.741 2.1 347 11.4 100020 82
2004-05-07 09:19 51°14.355 2°55.055 1.8 36 11.4 100020 81
2004-05-07 09:20 51°14.249 2°55.296 2.6 65 11.3 100020 81
2004-05-07 09:21 51°14.146 2°55.427 3.3 102 11.3 100020 81
2004-05-07 09:22 51°14.057 2°55.516 3.5 106 11.3 100020 81
2004-05-07 09:23 51°13.975 2°55.6 2.2 70 11.3 100020 81